Latest Weather Observations for Adelaide Airport

IDS60801

Issued at 6:01 am CST Thursday 26 May 2016 (issued every 30 minutes, with the page automatically refreshed every 10 minutes)

About weather observations | Map of weather stations | Latest weather observations for SA | Other Formats
Station Details ID: 023034 Name: ADELAIDE AIRPORT Lat: -34.95 Lon: 138.52 Height: 2.0 m
Data from the previous 72 hours. | See also: Recent months at Adelaide Airport
Date/Time
CST
Temp
°C
App
Temp
°C
Dew
Point
Rel
Hum
%
Delta-T
°C
Wind Press
QNH
hPa
Press
MSL
hPa
Rain
since 9 am
mm
Dir
 
Spd
km/h
Gust
km/h
Spd
kts
Gust
kts
26/05:30am 13.3 11.8 12.0 92 0.7 S 11 15 6 8 1008.0 1008.0 20.6
26/05:00am 13.5 12.4 12.0 91 0.8 S 9 11 5 6 1007.7 1007.7 20.6
26/04:30am 13.6 12.1 11.9 89 0.9 S 11 13 6 7 1007.4 1007.4 20.2
26/04:00am 14.0 12.2 12.0 88 1.1 SSW 13 15 7 8 1007.3 1007.3 20.2
26/03:30am 14.2 12.8 12.2 88 1.1 SSW 11 17 6 9 1007.2 1007.2 20.0
26/03:00am 14.3 13.4 12.7 90 0.9 SSW 9 11 5 6 1007.0 1007.0 20.0
26/02:30am 14.0 14.2 12.9 93 0.6 S 4 7 2 4 1006.6 1006.6 20.0
26/02:00am 14.7 13.8 12.7 88 1.1 S 9 11 5 6 1006.5 1006.5 20.0
26/01:30am 14.6 13.5 13.2 91 0.8 SSW 11 15 6 8 1006.6 1006.6 20.0
26/01:00am 14.8 13.5 13.7 93 0.6 SSW 13 17 7 9 1006.5 1006.5 20.0
26/12:30am 14.4 12.7 13.5 94 0.5 SW 15 22 8 12 1006.7 1006.7 19.4
26/12:24am 14.2 10.7 13.3 94 0.5 WSW 24 35 13 19 1006.8 1006.8 19.2
26/12:07am 15.1 10.9 14.6 97 0.3 WNW 30 35 16 19 1006.9 1006.9 17.8
26/12:00am 15.2 11.7 14.5 96 0.4 NW 26 33 14 18 1006.8 1006.8 15.4
 
Date/Time
CST
Temp
°C
App
Temp
°C
Dew
Point
Rel
Hum
%
Delta-T
°C
Wind Press
QNH
hPa
Press
MSL
hPa
Rain
since 9 am
mm
Dir
 
Spd
km/h
Gust
km/h
Spd
kts
Gust
kts
25/11:30pm 14.9 12.1 14.4 97 0.3 NNW 22 30 12 16 1006.6 1006.6 13.8
25/11:00pm 14.8 13.7 14.3 97 0.3 NNW 13 19 7 10 1006.8 1006.8 12.2
25/10:42pm 14.5 13.7 14.1 97 0.2 NNE 11 15 6 8 1006.9 1006.9 11.0
25/10:30pm 14.2 12.6 13.8 97 0.2 NE 15 19 8 10 1006.8 1006.8 10.6
25/10:00pm 13.9 11.8 13.5 97 0.2 NNE 17 24 9 13 1007.1 1007.1 9.6
25/09:30pm 13.8 11.6 13.4 97 0.2 NNE 17 19 9 10 1007.5 1007.5 8.4
25/09:00pm 13.8 12.0 13.4 97 0.2 NNE 15 19 8 10 1007.5 1007.5 7.2
25/08:30pm 13.9 12.5 13.4 97 0.3 NNE 13 15 7 8 1007.4 1007.4 5.6
25/08:00pm 13.9 12.4 13.2 96 0.4 N 13 17 7 9 1007.4 1007.4 5.2
25/07:35pm 14.0 11.2 13.1 94 0.5 N 20 28 11 15 1007.6 1007.6 4.6
25/07:30pm 14.0 11.7 13.1 94 0.5 N 17 28 9 15 1007.6 1007.6 4.2
25/07:00pm 14.0 11.4 13.1 94 0.5 N 19 28 10 15 1007.4 1007.4 4.0
25/06:30pm 14.2 11.4 13.3 94 0.5 N 20 30 11 16 1007.2 1007.2 3.8
25/06:00pm 14.5 11.3 13.1 91 0.8 N 22 30 12 16 1007.3 1007.3 3.2
25/05:30pm 14.5 10.8 12.7 89 1.0 N 24 35 13 19 1007.3 1007.3 3.2
25/05:00pm 14.4 11.0 12.6 89 1.0 N 22 33 12 18 1007.3 1007.3 3.2
25/04:52pm 14.5 11.0 12.3 87 1.2 N 22 28 12 15 1007.3 1007.3 3.2
25/04:47pm 14.4 10.5 12.2 87 1.2 N 24 30 13 16 1007.1 1007.1 3.2
25/04:30pm 14.2 8.8 12.2 88 1.1 N 32 41 17 22 1007.4 1007.4 3.2
25/04:29pm 14.2 8.7 12.0 87 1.2 N 32 41 17 22 1007.4 1007.4 3.2
25/04:26pm 14.4 8.8 12.0 85 1.3 N 33 46 18 25 1007.4 1007.4 2.8
25/04:23pm 14.8 9.2 11.6 81 1.7 N 32 46 17 25 1007.5 1007.5 2.6
25/04:00pm 15.1 10.7 11.8 81 1.8 N 26 39 14 21 1007.6 1007.6 2.6
25/03:30pm 15.3 10.7 12.4 83 1.6 N 28 37 15 20 1007.5 1007.5 2.4
25/03:00pm 15.0 12.9 12.4 84 1.4 N 15 20 8 11 1007.1 1007.1 2.4
25/02:30pm 14.7 13.0 12.3 85 1.3 NNE 13 19 7 10 1007.4 1007.4 2.4
25/02:00pm 14.2 10.4 12.4 89 1.0 N 24 32 13 17 1007.3 1007.3 2.4
25/01:30pm 14.0 9.4 12.2 89 1.0 N 28 35 15 19 1007.9 1007.9 2.4
25/01:00pm 13.9 9.6 11.9 88 1.1 N 26 33 14 18 1008.6 1008.6 2.4
25/12:30pm 13.5 9.1 11.8 89 0.9 NNE 26 35 14 19 1008.8 1008.8 2.4
25/12:00pm 13.1 8.1 11.0 87 1.1 N 28 33 15 18 1009.3 1009.3 2.4
25/11:30am 12.6 7.6 10.9 89 0.9 NNE 28 35 15 19 1010.1 1010.1 2.4
25/11:16am 12.2 7.5 10.7 90 0.8 NNE 26 39 14 21 1010.6 1010.6 2.4
25/11:00am 12.1 6.6 10.4 89 0.9 N 30 35 16 19 1011.3 1011.3 2.2
25/10:30am 12.0 7.5 10.2 89 0.9 N 24 33 13 18 1011.6 1011.6 1.6
25/10:10am 11.8 7.0 10.2 90 0.8 N 26 35 14 19 1012.0 1012.0 1.4
25/10:00am 12.0 7.4 9.8 86 1.1 N 24 32 13 17 1012.1 1012.1 1.0
25/09:30am 12.0 6.7 9.8 86 1.1 NNE 28 37 15 20 1011.9 1011.9 0.6
25/09:00am 12.3 8.6 9.5 83 1.4 NNE 19 26 10 14 1012.6 1012.6 3.6
25/08:30am 12.3 8.4 9.5 83 1.4 N 20 26 11 14 1012.7 1012.7 3.0
25/08:00am 12.2 7.8 8.8 80 1.7 NNE 22 28 12 15 1012.6 1012.6 2.4
25/07:30am 12.4 7.8 8.1 75 2.1 NNE 22 26 12 14 1012.4 1012.4 2.2
25/07:00am 12.1 8.6 8.7 80 1.7 NE 17 19 9 10 1012.6 1012.6 2.2
25/06:30am 11.8 8.3 8.8 82 1.5 NE 17 20 9 11 1012.4 1012.4 2.0
25/06:00am 11.5 8.0 8.9 84 1.3 NE 17 20 9 11 1012.5 1012.5 2.0
25/05:30am 12.1 7.6 8.5 78 1.8 NNE 22 32 12 17 1013.3 1013.3 1.4
25/05:00am 12.4 8.6 7.7 73 2.3 NNE 17 22 9 12 1013.4 1013.4 1.2
25/04:30am 13.8 9.2 5.8 58 3.8 N 19 26 10 14 1013.5 1013.5 0.8
25/04:00am 14.2 9.6 5.5 56 4.1 NNE 19 26 10 14 1013.2 1013.2 0.6
25/03:30am 13.4 9.9 7.0 65 3.1 NNE 15 19 8 10 1013.4 1013.4 0.6
25/03:00am 14.3 11.1 6.7 60 3.7 NE 13 15 7 8 1013.8 1013.8 0.2
25/02:30am 15.0 11.5 5.5 53 4.5 NNE 13 17 7 9 1014.1 1014.1 0.2
25/02:00am 15.3 11.0 3.5 45 5.4 NNE 15 19 8 10 1013.8 1013.8 0.2
25/01:30am 15.7 10.6 0.6 36 6.5 NE 17 22 9 12 1013.0 1013.0 0.0
25/01:00am 16.3 10.7 -0.1 32 7.0 NE 19 24 10 13 1013.1 1013.1 0.0
25/12:30am 15.7 10.4 -0.5 33 6.8 NE 17 20 9 11 1013.6 1013.6 0.0
25/12:00am 13.9 8.5 1.4 42 5.4 NE 19 24 10 13 1013.9 1013.9 0.0
 
Date/Time
CST
Temp
°C
App
Temp
°C
Dew
Point
Rel
Hum
%
Delta-T
°C
Wind Press
QNH
hPa
Press
MSL
hPa
Rain
since 9 am
mm
Dir
 
Spd
km/h
Gust
km/h
Spd
kts
Gust
kts
24/11:30pm 14.1 9.0 1.0 41 5.6 NE 17 20 9 11 1014.1 1014.1 0.0
24/11:00pm 13.9 8.8 0.7 40 5.6 NE 17 20 9 11 1014.5 1014.5 0.0
24/10:30pm 14.5 8.7 -0.4 36 6.2 NE 20 24 11 13 1014.9 1014.9 0.0
24/10:00pm 13.9 9.0 2.0 44 5.2 NE 17 20 9 11 1015.4 1015.4 0.0
24/09:30pm 14.3 9.1 2.3 44 5.3 NE 19 22 10 12 1015.6 1015.6 0.0
24/09:00pm 13.9 8.9 3.7 50 4.6 NE 19 20 10 11 1015.9 1015.9 0.0
24/08:30pm 14.0 10.6 5.8 57 3.9 NE 13 17 7 9 1016.3 1016.3 0.0
24/08:00pm 12.9 10.2 7.3 69 2.7 NE 11 13 6 7 1016.6 1016.6 0.0
24/07:30pm 13.3 11.4 7.6 68 2.8 NE 7 11 4 6 1016.8 1016.8 0.0
24/07:00pm 13.3 11.0 7.3 67 2.9 ENE 9 11 5 6 1016.5 1016.5 0.0
24/06:30pm 14.2 11.8 6.8 61 3.6 ENE 9 9 5 5 1016.7 1016.7 0.0
24/06:00pm 15.1 13.6 6.7 57 4.1 N 4 9 2 5 1016.6 1016.6 0.0
24/05:30pm 16.0 14.9 6.8 54 4.5 WNW 2 7 1 4 1016.6 1016.6 0.0
24/05:00pm 17.9 15.9 6.3 46 5.7 NNE 6 7 3 4 1016.6 1016.6 0.0
24/04:30pm 19.1 16.3 5.3 40 6.7 NNW 9 13 5 7 1016.9 1016.9 0.0
24/04:00pm 19.4 15.9 5.5 40 6.8 NW 13 15 7 8 1017.1 1017.1 0.0
24/03:30pm 19.4 15.6 7.4 45 6.1 NW 17 24 9 13 1017.4 1017.4 0.0
24/03:00pm 20.2 17.2 7.8 44 6.4 WNW 13 20 7 11 1017.5 1017.5 0.0
24/02:30pm 20.2 16.4 7.7 44 6.4 NNW 17 28 9 15 1018.0 1018.0 0.0
24/02:00pm 20.4 15.7 5.3 37 7.4 N 19 26 10 14 1018.2 1018.2 0.0
24/01:30pm 19.8 15.5 7.7 45 6.2 N 20 32 11 17 1018.6 1018.6 0.0
24/01:00pm 19.7 15.6 8.0 46 6.0 N 19 26 10 14 1019.4 1019.4 0.0
24/12:30pm 19.7 15.6 8.5 48 5.8 N 20 28 11 15 1019.9 1019.9 0.0
24/12:00pm 18.8 15.0 9.0 53 5.1 NNE 19 28 10 15 1020.7 1020.7 0.0
24/11:30am 17.7 13.8 8.5 55 4.7 N 19 26 10 14 1021.4 1021.4 0.0
24/11:00am 17.7 14.1 8.5 55 4.7 N 17 20 9 11 1022.4 1022.4 0.0
24/10:30am 16.7 13.7 9.4 62 3.8 NNE 15 20 8 11 1022.9 1022.9 0.0
24/10:00am 16.0 13.3 10.5 70 2.9 NE 15 19 8 10 1023.2 1023.2 0.0
24/09:30am 15.1 12.4 10.5 74 2.4 NE 15 19 8 10 1023.4 1023.4 0.0
24/09:00am 14.5 12.5 11.5 82 1.6 NE 13 17 7 9 1023.5 1023.5 0.6
24/08:30am 13.6 12.5 11.9 89 0.9 NE 9 11 5 6 1023.5 1023.5 0.6
24/08:11am 12.0 10.6 10.8 92 0.6 NE 9 11 5 6 1023.5 1023.5 0.6
24/08:00am 11.1 9.4 9.9 92 0.6 NE 9 9 5 5 1023.3 1023.3 0.6
24/07:30am 9.5 8.2 9.1 97 0.2 E 6 7 3 4 1023.3 1023.3 0.6
24/07:26am 9.7 8.2 9.1 96 0.3 ENE 7 7 4 4 1023.3 1023.3 0.6
24/07:00am 10.3 7.7 9.3 93 0.5 NE 13 13 7 7 1022.9 1022.9 0.4
24/06:30am 10.8 8.3 9.8 93 0.5 NNE 13 15 7 8 1022.6 1022.6 0.4
24/06:00am 10.0 8.2 9.4 96 0.3 NE 9 11 5 6 1022.3 1022.3 0.4
24/05:30am 10.2 7.6 9.4 95 0.4 NE 13 13 7 7 1022.1 1022.1 0.4
24/05:00am 10.3 8.2 9.7 96 0.3 NE 11 11 6 6 1022.3 1022.3 0.4
24/04:30am 10.5 9.1 9.7 95 0.4 ENE 7 9 4 5 1022.3 1022.3 0.4
24/04:00am 10.9 8.5 9.9 93 0.5 NE 13 13 7 7 1022.3 1022.3 0.4
24/03:30am 10.7 8.4 10.3 97 0.2 NNE 13 13 7 7 1022.3 1022.3 0.4
24/03:00am 10.7 9.1 10.1 96 0.3 ENE 9 11 5 6 1022.2 1022.2 0.4
24/02:30am 11.0 9.8 10.2 95 0.4 ENE 7 7 4 4 1022.7 1022.7 0.4
24/02:00am 11.6 9.7 10.6 94 0.5 NE 11 13 6 7 1022.9 1022.9 0.4
24/01:30am 12.0 9.8 10.8 92 0.6 NE 13 15 7 8 1023.2 1023.2 0.4
24/01:00am 11.7 9.2 10.9 95 0.4 NE 15 17 8 9 1023.2 1023.2 0.4
24/12:30am 11.9 10.7 11.5 97 0.2 NNE 9 13 5 7 1023.6 1023.6 0.4
24/12:00am 11.9 11.2 11.5 97 0.2 NNE 6 7 3 4 1023.6 1023.6 0.4
 
Date/Time
CST
Temp
°C
App
Temp
°C
Dew
Point
Rel
Hum
%
Delta-T
°C
Wind Press
QNH
hPa
Press
MSL
hPa
Rain
since 9 am
mm
Dir
 
Spd
km/h
Gust
km/h
Spd
kts
Gust
kts
23/11:30pm 12.2 11.5 11.4 95 0.4 NE 6 9 3 5 1023.6 1023.6 0.4
23/11:00pm 11.7 10.3 10.9 95 0.4 ENE 9 9 5 5 1023.6 1023.6 0.4
23/10:30pm 13.4 12.7 12.1 92 0.7 NNE 7 9 4 5 1023.7 1023.7 0.4
23/10:00pm 15.4 14.0 12.1 81 1.8 W 11 15 6 8 1024.0 1024.0 0.4
23/09:30pm 15.3 13.1 12.0 81 1.8 WSW 15 19 8 10 1024.3 1024.3 0.4
23/09:00pm 15.5 13.0 12.2 81 1.8 W 17 19 9 10 1024.4 1024.4 0.4
23/08:30pm 15.8 13.3 12.3 80 1.9 W 17 20 9 11 1024.3 1024.3 0.4
23/08:00pm 15.8 14.6 12.9 83 1.6 WNW 11 13 6 7 1024.2 1024.2 0.4
23/07:30pm 15.7 15.2 12.8 83 1.6 W 7 20 4 11 1024.0 1024.0 0.0
23/07:00pm 15.7 15.1 11.8 77 2.1 W 6 9 3 5 1023.7 1023.7 0.0
23/06:30pm 15.7 14.9 11.6 76 2.2 WSW 7 9 4 5 1023.5 1023.5 0.0
23/06:00pm 15.8 14.9 11.3 74 2.4 WSW 7 7 4 4 1023.1 1023.1 0.0
23/05:30pm 16.2 15.3 11.4 73 2.6 SW 7 9 4 5 1022.9 1022.9 0.0
23/05:00pm 16.9 15.5 10.9 67 3.2 SW 9 11 5 6 1022.8 1022.8 0.0
23/04:30pm 17.2 15.8 11.0 67 3.3 SW 9 13 5 7 1022.6 1022.6 0.0
23/04:00pm 18.1 15.7 11.3 64 3.7 W 15 19 8 10 1022.4 1022.4 0.0
23/03:30pm 18.4 16.2 10.8 61 4.1 WNW 13 19 7 10 1022.4 1022.4 0.0
23/03:00pm 18.3 15.8 11.1 63 3.9 WNW 15 20 8 11 1022.4 1022.4 0.0
23/02:30pm 18.0 15.3 10.3 60 4.1 NW 15 22 8 12 1022.4 1022.4 0.0
23/02:00pm 18.0 14.5 10.1 60 4.2 WNW 19 24 10 13 1022.5 1022.5 0.0
23/01:30pm 18.1 14.7 11.1 63 3.8 WNW 20 26 11 14 1022.4 1022.4 0.0
23/01:00pm 18.5 14.6 10.7 60 4.2 WNW 22 28 12 15 1022.5 1022.5 0.0
23/12:30pm 18.1 14.2 10.8 62 3.9 W 22 28 12 15 1022.6 1022.6 0.0
23/12:00pm 17.9 13.6 10.8 63 3.8 WNW 24 32 13 17 1022.8 1022.8 0.0
23/11:30am 17.8 13.5 10.7 63 3.8 WNW 24 30 13 16 1023.1 1023.1 0.0
23/11:00am 17.8 13.4 10.5 62 3.9 WNW 24 33 13 18 1023.5 1023.5 0.0
23/10:30am 17.0 12.5 10.2 64 3.6 WNW 24 30 13 16 1023.5 1023.5 0.0
23/10:00am 16.9 12.3 9.6 62 3.8 WNW 24 32 13 17 1023.5 1023.5 0.0
23/09:30am 16.7 11.8 9.8 63 3.6 WNW 26 32 14 17 1023.2 1023.2 0.0
23/09:00am 16.7 12.1 8.2 57 4.3 WNW 22 32 12 17 1023.1 1023.1 3.8
23/08:30am 16.0 12.0 9.2 64 3.5 WNW 20 28 11 15 1022.9 1022.9 3.8
23/08:00am 15.5 10.5 8.1 61 3.7 W 24 32 13 17 1022.6 1022.6 3.8
23/07:30am 15.0 10.0 8.0 63 3.5 W 24 33 13 18 1022.3 1022.3 3.8
23/07:00am 14.8 9.2 7.2 60 3.7 W 26 33 14 18 1022.0 1022.0 3.8
23/06:30am 14.6 8.7 7.5 62 3.5 W 28 33 15 18 1021.4 1021.4 3.8

Other Formats:

Comma delimited format used in spreadsheet applications
http://www.bom.gov.au/fwo/IDS60801/IDS60801.94672.axf

JavaScript Object Notation format (JSON) in row-major order
http://www.bom.gov.au/fwo/IDS60801/IDS60801.94672.json